createdAt,value
2018-11-02T00:00:14.977Z,998.84
2018-11-02T00:01:25.902Z,998.87
2018-11-02T00:02:35.747Z,998.89
2018-11-02T00:03:45.311Z,998.94
2018-11-02T00:04:54.882Z,998.96
2018-11-02T00:06:04.748Z,999.01
2018-11-02T00:07:15.171Z,999.02
2018-11-02T00:08:25.287Z,999
2018-11-02T00:09:35.119Z,999.04
2018-11-02T00:10:44.663Z,999.04
2018-11-02T00:11:54.761Z,999.04
2018-11-02T00:13:04.354Z,999
2018-11-02T00:14:14.388Z,999.08
2018-11-02T00:15:24.744Z,999.08
2018-11-02T00:16:35.117Z,999.1
2018-11-02T00:17:45.153Z,999.04
2018-11-02T00:18:55.051Z,999.05
2018-11-02T00:20:04.579Z,999.05
2018-11-02T00:21:14.405Z,999.06
2018-11-02T00:22:23.990Z,999.1
2018-11-02T00:23:34.129Z,999.09
2018-11-02T00:24:44.221Z,999.16
2018-11-02T00:25:53.767Z,999.18
2018-11-02T00:27:03.847Z,999.21
2018-11-02T00:28:13.665Z,999.18
2018-11-02T00:29:23.461Z,999.22
2018-11-02T00:30:33.558Z,999.23
2018-11-02T00:31:43.468Z,999.26
2018-11-02T00:32:53.992Z,999.32
2018-11-02T00:34:03.814Z,999.33
2018-11-02T00:35:13.647Z,999.3
2018-11-02T00:36:24.093Z,999.28
2018-11-02T00:37:34.384Z,999.25
2018-11-02T00:38:44.410Z,999.21
2018-11-02T00:39:54.361Z,999.17
2018-11-02T00:41:04.195Z,999.21
2018-11-02T00:42:13.756Z,999.22
2018-11-02T00:43:23.832Z,999.26
2018-11-02T00:44:33.119Z,999.27
2018-11-02T00:45:43.220Z,999.33
2018-11-02T00:46:53.044Z,999.35
2018-11-02T00:48:03.137Z,999.35
2018-11-02T00:49:12.966Z,999.36
2018-11-02T00:50:23.130Z,999.39
2018-11-02T00:51:32.959Z,999.4
2018-11-02T00:52:42.513Z,999.37
2018-11-02T00:53:52.119Z,999.42
2018-11-02T00:55:02.399Z,999.48
2018-11-02T00:56:13.187Z,999.45
2018-11-02T00:57:23.673Z,999.41
2018-11-02T00:58:34.229Z,999.4
2018-11-02T00:59:44.272Z,999.43
2018-11-02T01:00:54.136Z,999.42
2018-11-02T01:02:04.212Z,999.47
2018-11-02T01:03:14.023Z,999.52
2018-11-02T01:04:24.154Z,999.48
2018-11-02T01:05:34.411Z,999.47
2018-11-02T01:06:44.866Z,999.49
2018-11-02T01:07:54.995Z,999.49
2018-11-02T01:09:04.819Z,999.5
2018-11-02T01:10:14.620Z,999.49
2018-11-02T01:11:24.714Z,999.52
2018-11-02T01:12:34.805Z,999.55
2018-11-02T01:13:44.867Z,999.5
2018-11-02T01:14:54.417Z,999.5
2018-11-02T01:16:04.515Z,999.52
2018-11-02T01:17:14.342Z,999.51
2018-11-02T01:18:24.429Z,999.45
2018-11-02T01:19:34.259Z,999.44
2018-11-02T01:20:44.538Z,999.49
2018-11-02T01:21:54.250Z,999.5
2018-11-02T01:23:03.932Z,999.52
2018-11-02T01:24:13.786Z,999.48
2018-11-02T01:25:22.802Z,999.5
2018-11-02T01:26:32.603Z,999.52
2018-11-02T01:27:42.442Z,999.49
2018-11-02T01:28:52.395Z,999.46
2018-11-02T01:30:02.273Z,999.48
2018-11-02T01:31:11.808Z,999.48
2018-11-02T01:32:21.372Z,999.51
2018-11-02T01:33:31.222Z,999.59
2018-11-02T01:34:41.055Z,999.55
2018-11-02T01:35:50.880Z,999.67
2018-11-02T01:37:00.839Z,999.62
2018-11-02T01:38:10.931Z,999.7
2018-11-02T01:39:20.487Z,999.68
2018-11-02T01:40:30.310Z,999.69
2018-11-02T01:41:39.858Z,999.66
2018-11-02T01:42:49.958Z,999.71
2018-11-02T01:44:01.353Z,999.75
2018-11-02T01:45:11.229Z,999.76
2018-11-02T01:46:21.667Z,999.76
2018-11-02T01:47:31.885Z,999.69
2018-11-02T01:48:42.063Z,999.7
2018-11-02T01:49:51.550Z,999.72
2018-11-02T01:51:02.997Z,999.72
2018-11-02T01:52:13.092Z,999.72
2018-11-02T01:53:22.917Z,999.73
2018-11-02T01:54:32.982Z,999.73
2018-11-02T01:55:42.785Z,999.75
2018-11-02T01:56:52.669Z,999.73
2018-11-02T01:58:02.479Z,999.74
2018-11-02T01:59:12.289Z,999.74
2018-11-02T02:00:22.111Z,999.74
2018-11-02T02:01:32.182Z,999.77
2018-11-02T02:02:42.005Z,999.78
2018-11-02T02:03:52.147Z,999.77
2018-11-02T02:05:02.559Z,999.76
2018-11-02T02:06:12.187Z,999.76
2018-11-02T02:07:21.491Z,999.77
2018-11-02T02:08:31.972Z,999.79
2018-11-02T02:09:42.044Z,999.82
2018-11-02T02:10:51.604Z,999.84
2018-11-02T02:12:01.814Z,999.92
2018-11-02T02:13:11.774Z,999.93
2018-11-02T02:14:22.291Z,999.95
2018-11-02T02:15:32.165Z,999.97
2018-11-02T02:16:42.224Z,999.97
2018-11-02T02:17:52.306Z,999.94
2018-11-02T02:19:02.921Z,999.96
2018-11-02T02:20:12.750Z,999.99
2018-11-02T02:21:22.296Z,1000.02
2018-11-02T02:22:32.371Z,1000
2018-11-02T02:23:42.205Z,1000
2018-11-02T02:24:51.756Z,1000.04
2018-11-02T02:26:01.591Z,1000.01
2018-11-02T02:27:11.982Z,999.99
2018-11-02T02:28:22.447Z,1000.01
2018-11-02T02:29:33.157Z,1000
2018-11-02T02:30:42.991Z,1000.03
2018-11-02T02:31:53.073Z,1000
2018-11-02T02:33:02.954Z,1000
2018-11-02T02:34:13.024Z,999.99
2018-11-02T02:35:22.839Z,1000.03
2018-11-02T02:36:32.914Z,1000.06
2018-11-02T02:37:42.724Z,1000.06
2018-11-02T02:38:52.609Z,1000.02
2018-11-02T02:40:02.689Z,1000.02
2018-11-02T02:41:11.978Z,1000.06
2018-11-02T02:42:21.511Z,1000.06
2018-11-02T02:43:31.364Z,1000.07
2018-11-02T02:44:41.476Z,1000.05
2018-11-02T02:45:51.621Z,1000.08
2018-11-02T02:47:01.713Z,1000.1
2018-11-02T02:48:11.527Z,1000.2
2018-11-02T02:49:21.962Z,1000.29
2018-11-02T02:50:32.294Z,1000.32
2018-11-02T02:51:42.575Z,1000.36
2018-11-02T02:52:52.155Z,1000.36
2018-11-02T02:54:02.221Z,1000.4
2018-11-02T02:55:11.790Z,1000.41
2018-11-02T02:56:22.950Z,1000.42
2018-11-02T02:57:32.766Z,1000.44
2018-11-02T02:58:42.871Z,1000.42
2018-11-02T02:59:52.489Z,1000.47
2018-11-02T03:01:04.052Z,1000.38
2018-11-02T03:02:14.211Z,1000.39
2018-11-02T03:34:36.960Z,1000.62
2018-11-02T03:35:47.057Z,1000.65
2018-11-02T03:36:57.151Z,1000.75
2018-11-02T03:38:07.262Z,1000.75
2018-11-02T03:39:17.073Z,1000.81
2018-11-02T03:40:27.493Z,1000.84
2018-11-02T03:41:37.504Z,1000.91
2018-11-02T03:42:48.011Z,1000.91
2018-11-02T03:43:58.040Z,1000.92
2018-11-02T03:45:09.738Z,1000.97
2018-11-02T03:46:19.655Z,1000.94
2018-11-02T03:47:29.802Z,1000.99
2018-11-02T03:48:39.948Z,1001.01
2018-11-02T03:49:49.774Z,1001.07
2018-11-02T03:50:59.878Z,1001.11
2018-11-02T03:52:10.129Z,1001.16
2018-11-02T03:53:20.234Z,1001.22
2018-11-02T03:54:30.334Z,1001.26
2018-11-02T03:55:40.147Z,1001.31
2018-11-02T03:56:51.286Z,1001.3
2018-11-02T03:58:02.595Z,1001.33
2018-11-02T03:59:12.274Z,1001.32
2018-11-02T04:00:21.577Z,1001.37
2018-11-02T04:01:33.322Z,1001.37
2018-11-02T04:02:44.015Z,1001.38
2018-11-02T04:03:53.359Z,1001.39
2018-11-02T04:05:03.927Z,1001.39
2018-11-02T04:06:13.747Z,1001.37
2018-11-02T04:07:23.839Z,1001.35
2018-11-02T04:08:33.989Z,1001.39
2018-11-02T04:09:44.270Z,1001.39
2018-11-02T04:10:54.685Z,1001.43
2018-11-02T04:12:04.845Z,1001.39
2018-11-02T04:13:15.014Z,1001.41
2018-11-02T04:14:24.842Z,1001.43
2018-11-02T04:15:34.729Z,1001.45
2018-11-02T04:16:44.582Z,1001.42
2018-11-02T04:17:54.678Z,1001.42
2018-11-02T04:19:04.248Z,1001.38
2018-11-02T04:20:14.072Z,1001.4
2018-11-02T04:21:23.894Z,1001.32
2018-11-02T04:22:34.217Z,1001.33
2018-11-02T04:23:44.745Z,1001.33
2018-11-02T04:24:55.238Z,1001.31
2018-11-02T04:26:06.521Z,1001.35
2018-11-02T04:27:16.333Z,1001.34
2018-11-02T04:28:26.448Z,1001.28
2018-11-02T04:29:36.397Z,1001.24
2018-11-02T04:30:46.313Z,1001.24
2018-11-02T04:31:56.801Z,1001.29
2018-11-02T04:33:06.960Z,1001.29
2018-11-02T04:34:16.809Z,1001.3
2018-11-02T04:35:26.684Z,1001.32
2018-11-02T04:36:36.799Z,1001.33
2018-11-02T04:37:46.904Z,1001.36
2018-11-02T04:38:57.060Z,1001.31
2018-11-02T04:40:09.108Z,1001.29
2018-11-02T04:41:19.209Z,1001.35
2018-11-02T04:42:29.081Z,1001.39
2018-11-02T04:43:39.716Z,1001.45
2018-11-02T04:44:49.880Z,1001.53
2018-11-02T04:46:00.886Z,1001.54
2018-11-02T04:47:11.008Z,1001.54
2018-11-02T04:48:20.834Z,1001.52
2018-11-02T04:49:30.946Z,1001.54
2018-11-02T04:50:40.823Z,1001.48
2018-11-02T04:51:50.774Z,1001.48
2018-11-02T04:53:00.733Z,1001.49
2018-11-02T04:54:10.830Z,1001.52
2018-11-02T04:55:20.979Z,1001.5
2018-11-02T04:56:30.811Z,1001.56
2018-11-02T04:57:40.927Z,1001.56
2018-11-02T04:58:50.757Z,1001.54
2018-11-02T05:00:00.746Z,1001.55
2018-11-02T05:01:10.561Z,1001.57
2018-11-02T05:02:20.727Z,1001.59
2018-11-02T05:03:30.924Z,1001.58
2018-11-02T05:04:41.248Z,1001.59
2018-11-02T05:05:51.399Z,1001.58
2018-11-02T05:07:02.012Z,1001.66
2018-11-02T05:08:12.074Z,1001.67
2018-11-02T05:09:21.638Z,1001.68
2018-11-02T05:10:31.744Z,1001.66
2018-11-02T05:11:41.582Z,1001.62
2018-11-02T05:12:50.873Z,1001.64
2018-11-02T05:14:00.851Z,1001.57
2018-11-02T05:15:10.683Z,1001.55
2018-11-02T05:16:20.791Z,1001.62
2018-11-02T05:17:30.888Z,1001.65
2018-11-02T05:18:40.483Z,1001.69
2018-11-02T05:19:50.408Z,1001.7
2018-11-02T05:21:00.336Z,1001.74
2018-11-02T05:22:10.354Z,1001.79
2018-11-02T05:23:20.192Z,1001.81
2018-11-02T05:24:30.347Z,1001.81
2018-11-02T05:25:40.518Z,1001.89
2018-11-02T05:26:50.915Z,1001.91
2018-11-02T05:28:01.576Z,1001.97
2018-11-02T05:29:12.072Z,1002.02
2018-11-02T05:30:22.234Z,1002.08
2018-11-02T05:31:32.074Z,1002.16
2018-11-02T05:32:42.176Z,1002.14
2018-11-02T05:33:51.471Z,1002.19
2018-11-02T05:35:01.319Z,1002.17
2018-11-02T05:36:11.441Z,1002.15
2018-11-02T05:37:21.008Z,1002.14
2018-11-02T05:38:30.938Z,1002.17
2018-11-02T05:39:40.868Z,1002.17
2018-11-02T05:40:50.679Z,1002.21
2018-11-02T05:42:00.529Z,1002.27
2018-11-02T05:43:10.672Z,1002.3
2018-11-02T05:44:20.493Z,1002.33
2018-11-02T05:45:30.610Z,1002.32
2018-11-02T05:46:40.173Z,1002.3
2018-11-02T05:47:50.260Z,1002.34
2018-11-02T05:49:02.981Z,1002.33
2018-11-02T05:50:13.480Z,1002.33
2018-11-02T05:51:24.539Z,1002.33
2018-11-02T05:52:34.270Z,1002.33
2018-11-02T05:53:43.850Z,1002.34
2018-11-02T05:54:53.777Z,1002.34
2018-11-02T05:56:03.607Z,1002.37
2018-11-02T05:57:13.709Z,1002.38
2018-11-02T05:58:23.802Z,1002.42
2018-11-02T05:59:34.005Z,1002.45
2018-11-02T06:00:43.289Z,1002.44
2018-11-02T06:01:53.413Z,1002.47
2018-11-02T06:03:03.568Z,1002.45
2018-11-02T06:04:13.162Z,1002.44
2018-11-02T06:05:22.984Z,1002.5
2018-11-02T06:06:32.878Z,1002.6
2018-11-02T06:07:42.530Z,1002.66
2018-11-02T06:08:52.595Z,1002.74
2018-11-02T06:10:02.144Z,1002.76
2018-11-02T06:11:12.073Z,1002.77
2018-11-02T06:12:22.428Z,1002.84
2018-11-02T06:13:32.622Z,1002.84
2018-11-02T06:14:43.164Z,1002.84
2018-11-02T06:15:53.335Z,1002.86
2018-11-02T06:17:02.910Z,1002.94
2018-11-02T06:18:13.070Z,1002.93
2018-11-02T06:19:22.914Z,1002.98
2018-11-02T06:20:32.503Z,1002.99
2018-11-02T06:21:42.304Z,1003.04
2018-11-02T06:22:52.137Z,1003.04
2018-11-02T06:24:02.351Z,1003.07
2018-11-02T06:25:11.869Z,1003.06
2018-11-02T06:26:21.974Z,1003.05
2018-11-02T06:27:32.094Z,1003.09
2018-11-02T06:28:42.208Z,1003.07
2018-11-02T06:29:52.334Z,1003.11
2018-11-02T06:31:02.177Z,1003.09
2018-11-02T06:32:11.748Z,1003.02
2018-11-02T06:33:21.304Z,1003.03
2018-11-02T06:34:31.997Z,1003.1
2018-11-02T06:35:42.372Z,1003.06
2018-11-02T06:36:52.845Z,1003.14
2018-11-02T06:38:02.959Z,1003.13
2018-11-02T06:39:12.809Z,1003.18
2018-11-02T06:40:22.374Z,1003.22
2018-11-02T06:41:32.004Z,1003.25
2018-11-02T06:42:42.097Z,1003.23
2018-11-02T06:43:52.222Z,1003.24
2018-11-02T06:45:02.439Z,1003.25
2018-11-02T06:46:13.320Z,1003.29
2018-11-02T06:47:23.423Z,1003.24
2018-11-02T06:48:33.271Z,1003.29
2018-11-02T06:49:43.111Z,1003.27
2018-11-02T06:50:53.318Z,1003.2
2018-11-02T06:52:03.366Z,1003.16
2018-11-02T06:53:13.203Z,1003.09
2018-11-02T06:54:23.120Z,1003.1
2018-11-02T06:55:33.957Z,1003.08
2018-11-02T06:56:44.093Z,1003.16
2018-11-02T06:57:54.076Z,1003.18
2018-11-02T06:59:06.281Z,1003.19
2018-11-02T07:00:16.736Z,1003.25
2018-11-02T07:01:27.720Z,1003.26
2018-11-02T07:02:37.801Z,1003.25
2018-11-02T07:03:47.646Z,1003.27
2018-11-02T07:04:57.756Z,1003.29
2018-11-02T07:06:07.354Z,1003.38
2018-11-02T07:07:17.562Z,1003.41
2018-11-02T07:08:28.192Z,1003.47
2018-11-02T07:09:38.732Z,1003.45
2018-11-02T07:10:48.586Z,1003.53
2018-11-02T07:11:58.396Z,1003.54
2018-11-02T07:13:08.530Z,1003.55
2018-11-02T07:14:18.980Z,1003.55
2018-11-02T07:15:29.139Z,1003.56
2018-11-02T07:16:39.766Z,1003.58
2018-11-02T07:17:49.833Z,1003.62
2018-11-02T07:18:59.670Z,1003.61
2018-11-02T07:20:09.820Z,1003.58
2018-11-02T07:21:19.655Z,1003.61
2018-11-02T07:22:29.493Z,1003.64
2018-11-02T07:23:39.324Z,1003.68
2018-11-02T07:24:49.533Z,1003.66
2018-11-02T07:25:59.676Z,1003.7
2018-11-02T07:27:09.761Z,1003.67
2018-11-02T07:28:19.646Z,1003.69
2018-11-02T07:29:29.228Z,1003.68
2018-11-02T07:30:38.848Z,1003.67
2018-11-02T07:31:48.677Z,1003.68
2018-11-02T07:32:58.901Z,1003.73
2018-11-02T07:34:10.577Z,1003.74
2018-11-02T07:35:21.144Z,1003.74
2018-11-02T07:36:31.719Z,1003.77
2018-11-02T07:37:42.440Z,1003.73
2018-11-02T07:38:52.538Z,1003.75
2018-11-02T07:40:02.957Z,1003.71
2018-11-02T07:41:13.112Z,1003.68
2018-11-02T07:42:22.692Z,1003.63
2018-11-02T07:43:32.594Z,1003.63
2018-11-02T07:44:42.442Z,1003.6
2018-11-02T07:45:52.262Z,1003.64
2018-11-02T07:47:02.399Z,1003.71
2018-11-02T07:48:11.992Z,1003.7
2018-11-02T07:49:22.180Z,1003.72
2018-11-02T07:50:32.441Z,1003.71
2018-11-02T07:51:42.305Z,1003.73
2018-11-02T07:52:52.446Z,1003.7
2018-11-02T07:54:02.885Z,1003.7
2018-11-02T07:55:12.199Z,1003.72
2018-11-02T07:56:22.161Z,1003.7
2018-11-02T07:57:32.999Z,1003.68
2018-11-02T07:58:43.264Z,1003.7
2018-11-02T07:59:53.319Z,1003.72
2018-11-02T08:01:03.015Z,1003.73
2018-11-02T08:02:12.321Z,1003.73
2018-11-02T08:03:22.501Z,1003.74
2018-11-02T08:04:32.705Z,1003.75
2018-11-02T08:05:42.284Z,1003.76
2018-11-02T08:06:52.130Z,1003.72
2018-11-02T08:08:02.233Z,1003.7
2018-11-02T08:09:12.322Z,1003.66
2018-11-02T08:10:22.157Z,1003.7
2018-11-02T08:11:31.573Z,1003.73
2018-11-02T08:12:42.047Z,1003.74
2018-11-02T08:13:52.128Z,1003.71
2018-11-02T08:15:02.260Z,1003.73
2018-11-02T08:16:12.111Z,1003.68
2018-11-02T08:17:22.517Z,1003.7
2018-11-02T08:18:33.007Z,1003.7
2018-11-02T08:19:42.876Z,1003.71
2018-11-02T08:20:52.478Z,1003.71
2018-11-02T08:22:02.559Z,1003.73
2018-11-02T08:23:11.832Z,1003.74
2018-11-02T08:24:21.419Z,1003.78
2018-11-02T08:25:31.936Z,1003.82
2018-11-02T08:26:41.994Z,1003.77
2018-11-02T08:27:52.090Z,1003.72
2018-11-02T08:29:02.165Z,1003.72
2018-11-02T08:30:11.706Z,1003.71
2018-11-02T08:31:21.284Z,1003.78
2018-11-02T08:32:31.355Z,1003.79
2018-11-02T08:33:41.181Z,1003.82
2018-11-02T08:34:50.759Z,1003.83
2018-11-02T08:36:01.177Z,1003.78
2018-11-02T08:37:10.997Z,1003.75
2018-11-02T08:38:20.822Z,1003.79
2018-11-02T08:39:30.896Z,1003.8
2018-11-02T08:40:40.711Z,1003.89
2018-11-02T08:41:50.812Z,1003.87
2018-11-02T08:43:03.266Z,1003.94
2018-11-02T08:44:13.098Z,1003.96
2018-11-02T08:45:22.676Z,1003.98
2018-11-02T08:46:32.544Z,1003.97
2018-11-02T08:47:43.041Z,1003.95
2018-11-02T08:48:53.110Z,1003.96
2018-11-02T08:50:05.801Z,1003.91
2018-11-02T08:51:15.887Z,1003.95
2018-11-02T08:52:26.034Z,1003.96
2018-11-02T08:53:35.597Z,1004.01
2018-11-02T08:54:45.406Z,1004.01
2018-11-02T08:55:55.231Z,1003.99
2018-11-02T08:57:05.057Z,1004.01
2018-11-02T08:58:15.296Z,1003.97
2018-11-02T08:59:26.829Z,1004
2018-11-02T09:00:37.756Z,1003.98
2018-11-02T09:01:47.584Z,1004.01
2018-11-02T09:02:57.429Z,1003.99
2018-11-02T09:04:07.266Z,1004.06
2018-11-02T09:05:16.823Z,1004.09
2018-11-02T09:06:26.996Z,1004.1
2018-11-02T09:07:36.829Z,1004.03
2018-11-02T09:08:46.422Z,1004
2018-11-02T09:09:56.546Z,1003.97
2018-11-02T09:11:08.667Z,1004
2018-11-02T09:12:18.849Z,1003.99
2018-11-02T09:13:28.745Z,1003.97
2018-11-02T09:14:38.301Z,1003.99
2018-11-02T09:15:48.135Z,1003.95
2018-11-02T09:16:58.250Z,1003.95
2018-11-02T09:18:08.311Z,1003.92
2018-11-02T09:19:17.937Z,1003.9
2018-11-02T09:20:28.194Z,1003.91
2018-11-02T09:21:37.781Z,1003.92
2018-11-02T09:22:47.857Z,1003.89
2018-11-02T09:23:57.813Z,1003.87
2018-11-02T09:25:07.787Z,1003.88
2018-11-02T09:26:17.640Z,1003.88
2018-11-02T09:27:27.242Z,1003.91
2018-11-02T09:28:37.544Z,1003.98
2018-11-02T09:29:47.659Z,1003.98
2018-11-02T09:30:57.782Z,1003.97
2018-11-02T09:32:09.009Z,1004.01
2018-11-02T09:33:19.090Z,1004.05
2018-11-02T09:34:29.183Z,1004.03
2018-11-02T09:35:39.042Z,1004.04
2018-11-02T09:36:49.199Z,1004.09
2018-11-02T09:37:58.786Z,1004.14
2018-11-02T09:39:08.896Z,1004.13
2018-11-02T09:40:19.066Z,1004.13
2018-11-02T09:41:29.990Z,1004.13
2018-11-02T09:42:40.209Z,1004.12
2018-11-02T09:43:51.008Z,1004.08
2018-11-02T09:45:01.867Z,1004.03
2018-11-02T09:46:11.752Z,1004.02
2018-11-02T09:47:21.117Z,1003.92
2018-11-02T09:48:30.963Z,1003.88
2018-11-02T09:49:40.825Z,1003.87
2018-11-02T09:50:50.954Z,1003.87
2018-11-02T09:52:01.551Z,1003.85
2018-11-02T09:53:13.005Z,1003.85
2018-11-02T09:54:23.167Z,1003.82
2018-11-02T09:55:33.287Z,1003.84
2018-11-02T09:56:43.423Z,1003.85
2018-11-02T09:57:53.840Z,1003.86
2018-11-02T09:59:05.524Z,1003.85
2018-11-02T10:00:15.660Z,1003.86
2018-11-02T10:01:25.583Z,1003.83
2018-11-02T10:02:35.708Z,1003.78
2018-11-02T10:03:45.831Z,1003.72
2018-11-02T10:04:55.682Z,1003.71
2018-11-02T10:06:05.837Z,1003.73
2018-11-02T10:07:15.517Z,1003.73
2018-11-02T10:08:25.682Z,1003.74
2018-11-02T10:09:35.180Z,1003.79
2018-11-02T10:10:45.059Z,1003.84
2018-11-02T10:11:55.200Z,1003.89
2018-11-02T10:13:05.324Z,1003.86
2018-11-02T10:14:16.023Z,1003.85
2018-11-02T10:15:26.749Z,1003.82
2018-11-02T10:16:36.862Z,1003.81
2018-11-02T10:17:46.221Z,1003.82
2018-11-02T10:18:56.104Z,1003.82
2018-11-02T10:20:06.330Z,1003.83
2018-11-02T10:21:15.924Z,1003.79
2018-11-02T10:22:26.118Z,1003.81
2018-11-02T10:23:35.488Z,1003.82
2018-11-02T10:24:46.018Z,1003.84
2018-11-02T10:25:55.886Z,1003.84
2018-11-02T10:27:05.725Z,1003.83
2018-11-02T10:28:15.203Z,1003.86
2018-11-02T10:29:25.482Z,1003.87
2018-11-02T10:30:35.356Z,1003.87
2018-11-02T10:31:45.476Z,1003.87
2018-11-02T10:32:55.412Z,1003.94
2018-11-02T10:34:05.004Z,1003.9
2018-11-02T10:35:15.206Z,1003.86
2018-11-02T10:36:25.635Z,1003.88
2018-11-02T10:37:36.316Z,1003.88
2018-11-02T10:38:46.943Z,1003.89
2018-11-02T10:39:56.984Z,1003.89
2018-11-02T10:41:08.289Z,1003.95
2018-11-02T10:42:18.430Z,1003.93
2018-11-02T10:43:28.305Z,1003.92
2018-11-02T10:44:38.556Z,1003.87
2018-11-02T10:45:48.990Z,1003.87
2018-11-02T10:46:59.051Z,1003.81
2018-11-02T10:48:08.920Z,1003.78
2018-11-02T10:49:19.080Z,1003.77
2018-11-02T10:50:29.993Z,1003.79
2018-11-02T10:51:40.207Z,1003.77
2018-11-02T10:52:50.089Z,1003.76
2018-11-02T10:53:59.654Z,1003.73
2018-11-02T10:55:10.105Z,1003.65
2018-11-02T10:56:20.232Z,1003.63
2018-11-02T10:57:30.123Z,1003.55
2018-11-02T10:58:40.510Z,1003.59
2018-11-02T10:59:51.184Z,1003.47
2018-11-02T11:01:02.219Z,1003.48
2018-11-02T11:02:13.440Z,1003.43
2018-11-02T11:03:23.622Z,1003.46
2018-11-02T11:04:33.478Z,1003.44
2018-11-02T11:05:43.637Z,1003.49
2018-11-02T11:06:53.513Z,1003.46
2018-11-02T11:08:04.179Z,1003.46
2018-11-02T11:09:14.372Z,1003.42
2018-11-02T11:10:24.531Z,1003.33
2018-11-02T11:11:34.502Z,1003.27
2018-11-02T11:12:45.947Z,1003.26
2018-11-02T11:13:57.658Z,1003.2
2018-11-02T11:15:07.800Z,1003.14
2018-11-02T11:16:17.647Z,1003.1
2018-11-02T11:17:27.781Z,1003.1
2018-11-02T11:18:37.650Z,1003.09
2018-11-02T11:19:47.914Z,1003.13
2018-11-02T11:20:57.695Z,1003.14
2018-11-02T11:22:08.169Z,1003.14
2018-11-02T11:23:18.398Z,1003.13
2018-11-02T11:24:28.286Z,1003.13
2018-11-02T11:25:38.394Z,1003.13
2018-11-02T11:26:47.997Z,1003.15
2018-11-02T11:27:58.153Z,1003.18
2018-11-02T11:29:08.392Z,1003.16
2018-11-02T11:30:18.709Z,1003.22
2018-11-02T11:31:28.593Z,1003.23
2018-11-02T11:32:38.459Z,1003.2
2018-11-02T11:33:48.590Z,1003.18
2018-11-02T11:34:58.259Z,1003.18
2018-11-02T11:36:07.761Z,1003.12
2018-11-02T11:37:17.934Z,1003.11
2018-11-02T11:38:27.945Z,1003.09
2018-11-02T11:39:37.902Z,1003.03
2018-11-02T11:40:47.954Z,1003.03
2018-11-02T11:41:58.115Z,1002.97
2018-11-02T11:43:08.346Z,1002.98
2018-11-02T11:44:18.358Z,1002.98
2018-11-02T11:45:28.362Z,1002.96
2018-11-02T11:46:38.766Z,1002.96
2018-11-02T11:47:48.912Z,1003
2018-11-02T11:48:59.240Z,1003.01
2018-11-02T11:50:11.199Z,1003.01
2018-11-02T11:51:21.072Z,1003.06
2018-11-02T11:52:30.427Z,1003.01
2018-11-02T11:53:40.344Z,1003.01
2018-11-02T11:54:50.225Z,1003.04
2018-11-02T11:56:00.343Z,1003.09
2018-11-02T11:57:09.946Z,1003.13
2018-11-02T11:58:20.084Z,1003.1
2018-11-02T11:59:29.962Z,1003.11
2018-11-02T12:00:40.112Z,1003.1
2018-11-02T12:01:49.689Z,1003.13
2018-11-02T12:02:59.846Z,1003.17
2018-11-02T12:04:10.148Z,1003.18
2018-11-02T12:05:20.302Z,1003.24
2018-11-02T12:06:29.902Z,1003.29
2018-11-02T12:07:39.593Z,1003.29
2018-11-02T12:08:49.965Z,1003.29
2018-11-02T12:09:59.802Z,1003.28
2018-11-02T12:11:10.443Z,1003.34
2018-11-02T12:12:20.586Z,1003.3
2018-11-02T12:13:30.465Z,1003.26
2018-11-02T12:14:40.353Z,1003.26
2018-11-02T12:15:50.005Z,1003.28
2018-11-02T12:17:01.681Z,1003.28
2018-11-02T12:18:11.613Z,1003.26
2018-11-02T12:19:21.474Z,1003.26
2018-11-02T12:20:31.050Z,1003.22
2018-11-02T12:21:41.285Z,1003.15
2018-11-02T12:22:51.940Z,1003.1
2018-11-02T12:24:01.834Z,1003.08
2018-11-02T12:25:11.691Z,1003.1
2018-11-02T12:26:21.885Z,1003.08
2018-11-02T12:27:31.531Z,1003.01
2018-11-02T12:28:41.722Z,1003.05
2018-11-02T12:29:52.694Z,1003.06
2018-11-02T12:31:02.957Z,1003.08
2018-11-02T12:32:12.924Z,1003.13
2018-11-02T12:33:22.860Z,1003.12
2018-11-02T12:34:32.707Z,1003.16
2018-11-02T12:35:42.831Z,1003.17
2018-11-02T12:36:52.721Z,1003.23
2018-11-02T12:38:03.718Z,1003.19
2018-11-02T12:39:13.295Z,1003.21
2018-11-02T12:40:23.456Z,1003.14
2018-11-02T12:41:33.307Z,1003.12
2018-11-02T12:42:43.154Z,1003.18
2018-11-02T12:43:53.190Z,1003.17
2018-11-02T12:45:03.528Z,1003.17
2018-11-02T12:46:13.402Z,1003.2
2018-11-02T12:47:23.246Z,1003.2
2018-11-02T12:48:33.469Z,1003.16
2018-11-02T12:49:45.543Z,1003.12
2018-11-02T12:50:57.773Z,1003.13
2018-11-02T12:52:08.563Z,1003.1
2018-11-02T12:53:18.409Z,1003.09
2018-11-02T12:54:28.545Z,1003.11
2018-11-02T12:55:38.678Z,1003.12
2018-11-02T12:56:48.820Z,1003.12
2018-11-02T12:57:58.669Z,1003.11
2018-11-02T12:59:08.715Z,1003.15
2018-11-02T13:00:18.879Z,1003.13
2018-11-02T13:01:28.509Z,1003.14
2018-11-02T13:02:38.411Z,1003.11
2018-11-02T13:03:48.551Z,1003.11
2018-11-02T13:04:58.394Z,1003.13
2018-11-02T13:06:09.832Z,1003.14
2018-11-02T13:07:19.796Z,1003.15
2018-11-02T13:08:29.929Z,1003.11
2018-11-02T13:09:40.167Z,1003.1
2018-11-02T13:10:50.057Z,1003.15
2018-11-02T13:11:59.969Z,1003.14
2018-11-02T13:13:10.896Z,1003.14
2018-11-02T13:14:21.027Z,1003.14
2018-11-02T13:15:30.903Z,1003.15
2018-11-02T13:16:40.940Z,1003.13
2018-11-02T13:17:50.788Z,1003.15
2018-11-02T13:19:01.282Z,1003.17
2018-11-02T13:20:11.675Z,1003.15
2018-11-02T13:21:22.721Z,1003.14
2018-11-02T13:22:33.004Z,1003.18
2018-11-02T13:23:43.155Z,1003.14
2018-11-02T13:24:53.302Z,1003.17
2018-11-02T13:26:03.464Z,1003.15
2018-11-02T13:27:14.835Z,1003.18
2018-11-02T13:28:24.418Z,1003.16
2018-11-02T13:29:34.549Z,1003.15
2018-11-02T13:30:44.629Z,1003.11
2018-11-02T13:31:55.086Z,1003.16
2018-11-02T13:33:06.198Z,1003.11
2018-11-02T13:34:16.296Z,1003.11
2018-11-02T13:35:26.191Z,1003.08
2018-11-02T13:36:36.531Z,1003.07
2018-11-02T13:37:46.477Z,1003.04
2018-11-02T13:38:56.397Z,1003.07
2018-11-02T13:40:06.279Z,1002.99
2018-11-02T13:41:16.124Z,1002.98
2018-11-02T13:42:25.713Z,1002.97
2018-11-02T13:43:35.630Z,1002.97
2018-11-02T13:44:46.051Z,1002.95
2018-11-02T13:45:56.203Z,1002.96
2018-11-02T13:47:06.416Z,1002.95
2018-11-02T13:48:16.266Z,1002.95
2018-11-02T13:49:25.614Z,1002.97
2018-11-02T13:50:35.868Z,1002.95
2018-11-02T13:51:45.792Z,1002.96
2018-11-02T13:52:55.750Z,1002.96
2018-11-02T13:54:06.396Z,1002.95
2018-11-02T13:55:17.251Z,1002.97
2018-11-02T13:56:27.482Z,1002.94
2018-11-02T13:57:37.657Z,1002.97
2018-11-02T13:58:47.584Z,1002.94
2018-11-02T13:59:57.339Z,1002.9
2018-11-02T14:01:07.967Z,1002.86
2018-11-02T14:02:18.614Z,1002.84
2018-11-02T14:03:28.468Z,1002.85
2018-11-02T14:04:38.390Z,1002.95
2018-11-02T14:05:48.264Z,1003.01
2018-11-02T14:06:58.395Z,1003.03
2018-11-02T14:08:08.260Z,1003.04
2018-11-02T14:09:17.648Z,1003.06
2018-11-02T14:10:27.539Z,1003.13
2018-11-02T14:11:37.789Z,1003.13
2018-11-02T14:12:47.980Z,1003.12
2018-11-02T14:13:57.835Z,1003.11
2018-11-02T14:15:08.370Z,1003.05
2018-11-02T14:16:18.799Z,1003.05
2018-11-02T14:17:28.964Z,1003.04
2018-11-02T14:18:58.242Z,1003.02
2018-11-02T14:20:08.388Z,1003.01
2018-11-02T14:21:18.256Z,1003.05
2018-11-02T14:22:27.831Z,1003.04
2018-11-02T14:23:38.065Z,1003.07
2018-11-02T14:24:48.199Z,1003.13
2018-11-02T14:25:58.314Z,1003.09
2018-11-02T14:27:10.271Z,1003.09
2018-11-02T14:28:20.438Z,1003
2018-11-02T14:29:30.673Z,1003.02
2018-11-02T14:30:41.844Z,1003.04
2018-11-02T14:31:52.452Z,1003.09
2018-11-02T14:33:03.896Z,1003.06
2018-11-02T14:34:14.024Z,1003.07
2018-11-02T14:35:23.904Z,1003.05
2018-11-02T14:36:34.064Z,1003.03
2018-11-02T14:37:43.956Z,1002.99
2018-11-02T14:38:54.098Z,1003.01
2018-11-02T14:40:06.477Z,1003.02
2018-11-02T14:41:16.409Z,1002.99
2018-11-02T14:42:26.390Z,1002.99
2018-11-02T14:43:36.540Z,1003.05
2018-11-02T14:44:46.685Z,1003.07
2018-11-02T14:45:56.563Z,1003.07
2018-11-02T14:47:06.702Z,1003.08